White Plains, Kentucky
Current Conditions -  °F | °C
As of 2:35 AM on Sunday 23 Nov 2014 (Local Time) from K2I0 Reporting Station
Broken Clouds Broken Clouds  
Wind Chill: 55°   Ceiling: 3000
Heat Index: 55°   Visibility: 10mi
Dew Point: 43°   Wind: 7mph
Humidity: 63%   Direction: 170°S
Pressure: 29.97"   Gusts: NA
Location:  37.18°N, 87.38°W
Report Text: K2I0 230835Z AUTO 17006KT 10SM BKN030 13/06 A2997 RMK AO2 T01290060
Loading
Personal Weather Stations






























Interactive Weather Map New forecast layout! Learn more

10-Day Weather Forecast

Advertisements
Track Severe Weather on mobile